Allen Army Airfield
PABI : now visible

Airfield :











YOU CAN JOIN US ON...

 
LOGIN :

Register | Disclaimer

   EN    FR    IT 

 









Legend :    VFR   Marginal VFR   IFR   Intensive IFR   Very Intensive IFR
Visi :
Ceiling :
>= 8 km
>= 3000ft
5 to 8 km
1000 to 3000 ft
1500m to 5 km
500 to 1000 ft
800 to 1500m
200 to 500 ft
< 800m
< 200 ft
Symbols :   Thunderstorms  Fog  Heavy snow  Heavy precipitations  Wind > 20 kt






- Airport Elevation : 1291 ft
- IATA code : BIG


PABI - Allen Army

CURRENT METAR :
  • 051553Z 12005KT 10SM FEW120 M26/M28 A2990 RMK AO2 SLP191 T12611283

EXPIRED METARs :
  • 051453Z 12003KT 10SM FEW120 M25/M27 A2992 RMK AO2 SLP195 T12501272 56010
  • 051353Z AUTO 08003KT 10SM CLR M25/M27 A2992 RMK AO2 SLP197 T12501272 TSNO

TAF TAF PABI
Valid from the 05 at 14:00 until the 06 at 20:00 UTC


051400Z 0514/0620 11009KT 9999 FEW100 QNH2981INS
BECMG 0520/0521 08012KT 9999 SKC QNH2970INS TXM23/0612Z TNM33/0515Z FOR MIL USE ONLY



MET'MAP, your aeronautical weather chart ! - Copyright ORBIFLY December 2007 - Disclaimer

ORBIFLY MET'MAP TEAM :

Programming & Development : Alexandra Zaïnal
Concept & original design : Baudouin d'Aumeries
Assistance for programming : Marc-Olivier Méhu
Technical & hardware support : Manuel Goepfert

Contact : metmap@orbifly.com




SOURCES & CREDITS :

   NOAA       Earth
Advisory